Time;durP1;ratioP1;P1;durP2;ratioP2;P2;SDS_P1;SDS_P2;PMS_P1;PMS_P2;Temp;Humidity;BMP_temperature;BMP_pressure;BME280_temperature;BME280_humidity;BME280_pressure;Samples;Min_cycle;Max_cycle;Signal;HPM_P1;HPM_P2
2021/11/27 00:01:14;;;;;;;4.23;1.17;;;4.80;98.20;;;;;;5016882;28;20034;-79
2021/11/27 00:03:39;;;;;;;3.20;0.80;;;4.70;98.40;;;;;;5016368;28;20021;-79
2021/11/27 00:06:05;;;;;;;2.17;1.00;;;4.70;98.50;;;;;;5017266;28;20116;-79
2021/11/27 00:08:31;;;;;;;1.87;0.90;;;4.60;98.50;;;;;;5016925;28;20021;-80
2021/11/27 00:10:58;;;;;;;1.40;1.00;;;4.60;98.60;;;;;;5016875;28;20116;-80
2021/11/27 00:13:25;;;;;;;3.03;1.17;;;4.60;98.60;;;;;;5017501;28;20087;-80
2021/11/27 00:15:51;;;;;;;3.07;1.30;;;4.60;98.50;;;;;;5033992;28;20025;-80
2021/11/27 00:18:21;;;;;;;3.17;0.90;;;4.60;98.60;;;;;;5016612;28;20029;-78
2021/11/27 00:21:08;;;;;;;4.83;1.17;;;4.60;98.80;;;;;;5016063;28;20120;-78
2021/11/27 00:23:36;;;;;;;1.80;0.87;;;4.60;99.00;;;;;;5034080;28;20017;-79
2021/11/27 00:26:03;;;;;;;2.57;0.80;;;4.60;99.20;;;;;;5009566;28;20116;-80
2021/11/27 00:28:28;;;;;;;3.23;1.00;;;4.60;99.20;;;;;;5022223;28;20021;-85
2021/11/27 00:30:58;;;;;;;3.23;1.17;;;4.50;99.20;;;;;;5007610;28;20025;-80
2021/11/27 00:33:24;;;;;;;3.80;1.53;;;4.60;99.30;;;;;;5007778;28;20034;-80
2021/11/27 00:35:50;;;;;;;2.67;0.83;;;4.50;99.30;;;;;;5010193;28;20460;-82
2021/11/27 00:38:16;;;;;;;3.27;1.10;;;4.50;99.30;;;;;;5016694;28;20446;-80
2021/11/27 00:40:44;;;;;;;2.40;1.20;;;4.50;99.40;;;;;;5016201;28;20028;-78
2021/11/27 00:43:11;;;;;;;2.10;1.00;;;4.50;99.60;;;;;;5032890;28;20460;-78
2021/11/27 00:45:39;;;;;;;2.97;0.80;;;4.50;99.60;;;;;;5033376;28;20053;-78
2021/11/27 00:48:06;;;;;;;3.40;0.80;;;4.50;99.70;;;;;;5015704;28;20030;-78
2021/11/27 00:50:39;;;;;;;3.63;0.90;;;4.50;99.80;;;;;;5015654;28;20061;-79
2021/11/27 00:53:05;;;;;;;3.10;0.83;;;4.50;99.80;;;;;;5016169;28;20466;-77
2021/11/27 00:55:32;;;;;;;2.13;0.80;;;4.50;99.90;;;;;;5032409;28;20097;-77
2021/11/27 00:57:58;;;;;;;1.60;0.90;;;4.50;99.90;;;;;;5032732;28;20029;-78
2021/11/27 01:00:32;;;;;;;2.17;0.83;;;4.50;99.90;;;;;;5016157;28;20029;-79
2021/11/27 01:03:03;;;;;;;2.23;0.70;;;4.50;99.80;;;;;;4999114;28;20117;-79
2021/11/27 01:05:31;;;;;;;1.77;0.90;;;4.50;99.70;;;;;;5008984;28;20120;-79
2021/11/27 01:07:56;;;;;;;4.87;0.80;;;4.50;99.80;;;;;;5003506;28;20033;-80
2021/11/27 01:10:25;;;;;;;3.43;0.70;;;4.50;99.60;;;;;;5015451;28;20373;-80
2021/11/27 01:12:52;;;;;;;2.93;0.97;;;4.50;99.70;;;;;;5015622;28;20030;-79
2021/11/27 01:15:21;;;;;;;2.17;0.70;;;4.50;99.70;;;;;;5016032;28;20063;-79
2021/11/27 01:17:47;;;;;;;1.60;0.57;;;4.50;99.70;;;;;;5015381;28;20033;-80
2021/11/27 01:20:22;;;;;;;1.90;0.70;;;4.60;99.70;;;;;;5032246;28;20239;-79
2021/11/27 01:22:48;;;;;;;1.00;0.60;;;4.60;99.60;;;;;;5014934;28;20025;-79
2021/11/27 01:25:14;;;;;;;2.07;0.50;;;4.60;99.50;;;;;;5015608;28;20087;-78
2021/11/27 01:27:40;;;;;;;1.40;0.60;;;4.60;99.30;;;;;;5032593;28;20092;-78
2021/11/27 01:30:09;;;;;;;1.30;0.60;;;4.60;99.30;;;;;;5031960;28;20037;-78
2021/11/27 01:32:35;;;;;;;1.77;0.50;;;4.70;99.30;;;;;;5014964;28;20029;-79
2021/11/27 01:35:01;;;;;;;2.13;0.60;;;4.70;99.40;;;;;;5015195;28;20037;-78
2021/11/27 01:37:27;;;;;;;3.90;0.70;;;4.70;99.50;;;;;;5015437;28;20025;-79
2021/11/27 01:39:53;;;;;;;1.50;0.40;;;4.70;99.70;;;;;;5015199;28;20021;-77
2021/11/27 01:42:18;;;;;;;0.87;0.40;;;4.70;99.90;;;;;;5015122;28;20409;-78
2021/11/27 01:44:44;;;;;;;1.13;0.53;;;4.70;99.90;;;;;;5032369;28;20077;-79
2021/11/27 01:47:10;;;;;;;1.17;0.60;;;4.70;99.90;;;;;;5015536;28;20017;-79
2021/11/27 01:49:37;;;;;;;0.83;0.47;;;4.70;99.90;;;;;;5015253;28;20018;-79
2021/11/27 01:52:04;;;;;;;0.90;0.57;;;4.60;99.90;;;;;;5000287;28;20037;-79
2021/11/27 01:54:30;;;;;;;1.13;0.50;;;4.60;99.90;;;;;;4995740;28;20028;-79
2021/11/27 01:57:01;;;;;;;1.00;0.60;;;4.70;99.90;;;;;;5008217;28;20108;-78
2021/11/27 01:59:29;;;;;;;2.20;0.30;;;4.60;99.90;;;;;;5015347;28;20030;-79
2021/11/27 02:01:55;;;;;;;0.73;0.50;;;4.60;99.90;;;;;;5015251;28;20029;-79
2021/11/27 02:04:21;;;;;;;2.30;0.53;;;4.60;99.90;;;;;;5015669;28;20026;-79
2021/11/27 02:06:47;;;;;;;0.87;0.43;;;4.60;99.90;;;;;;5015093;28;20028;-78
2021/11/27 02:09:25;;;;;;;2.37;0.40;;;4.60;99.90;;;;;;5018930;28;20028;-78
2021/11/27 02:11:52;;;;;;;0.70;0.40;;;4.60;99.90;;;;;;5035975;28;20021;-78
2021/11/27 02:14:18;;;;;;;1.43;0.30;;;4.60;99.90;;;;;;5013485;28;20084;-77
2021/11/27 02:16:45;;;;;;;1.17;0.40;;;4.60;99.90;;;;;;4999107;28;20046;-78
2021/11/27 02:19:11;;;;;;;1.10;0.40;;;4.60;99.90;;;;;;4999161;28;20029;-77
2021/11/27 02:21:37;;;;;;;0.50;0.30;;;4.60;99.90;;;;;;4998952;28;20036;-78
2021/11/27 02:24:03;;;;;;;2.10;0.40;;;4.60;99.90;;;;;;4999376;28;20022;-78
2021/11/27 02:26:32;;;;;;;3.97;0.60;;;4.60;99.90;;;;;;5025340;28;20097;-77
2021/11/27 02:29:06;;;;;;;0.60;0.37;;;4.60;99.90;;;;;;5018429;28;20045;-78
2021/11/27 02:31:32;;;;;;;1.37;0.40;;;4.60;99.90;;;;;;5018658;28;20417;-77
2021/11/27 02:33:58;;;;;;;1.70;0.50;;;4.60;99.90;;;;;;5018479;28;20026;-78
2021/11/27 02:36:25;;;;;;;3.13;0.30;;;4.50;99.90;;;;;;5018777;28;20109;-79
2021/11/27 02:38:52;;;;;;;0.97;0.53;;;4.60;99.90;;;;;;5017998;28;20021;-77
2021/11/27 02:41:18;;;;;;;0.50;0.30;;;4.60;99.90;;;;;;5030666;28;20053;-76
2021/11/27 02:43:44;;;;;;;0.87;0.50;;;4.60;99.90;;;;;;5009879;28;20490;-78
2021/11/27 02:46:10;;;;;;;0.40;0.20;;;4.60;99.90;;;;;;5016127;28;20025;-77
2021/11/27 02:48:36;;;;;;;0.97;0.40;;;4.60;99.90;;;;;;5017999;28;20033;-77
2021/11/27 02:51:02;;;;;;;1.30;0.40;;;4.50;99.90;;;;;;5035960;28;20033;-77
2021/11/27 02:53:28;;;;;;;1.33;0.27;;;4.50;99.90;;;;;;5036094;28;20552;-77
2021/11/27 02:55:53;;;;;;;1.13;0.30;;;4.50;99.90;;;;;;5035494;28;20100;-76
2021/11/27 02:58:19;;;;;;;0.30;0.30;;;4.60;99.90;;;;;;5018539;28;20450;-76
2021/11/27 03:00:47;;;;;;;0.20;0.20;;;4.60;99.90;;;;;;5017635;28;20124;-78
2021/11/27 03:03:12;;;;;;;0.73;0.40;;;4.50;99.90;;;;;;5018599;28;20033;-78
2021/11/27 03:05:39;;;;;;;1.80;0.33;;;4.50;99.90;;;;;;5014924;28;20102;-77
2021/11/27 03:08:05;;;;;;;0.70;0.30;;;4.50;99.90;;;;;;5016400;28;20032;-77
2021/11/27 03:10:31;;;;;;;0.80;0.33;;;4.50;99.90;;;;;;4999016;28;20022;-76
2021/11/27 03:12:57;;;;;;;0.40;0.30;;;4.50;99.90;;;;;;4997926;28;20172;-77
2021/11/27 03:15:23;;;;;;;1.30;0.30;;;4.50;99.90;;;;;;4998648;28;20466;-77
2021/11/27 03:17:49;;;;;;;0.40;0.40;;;4.50;99.90;;;;;;4998037;28;20029;-77
2021/11/27 03:20:17;;;;;;;1.30;0.40;;;4.50;99.90;;;;;;4997352;28;20045;-77
2021/11/27 03:22:43;;;;;;;1.63;0.73;;;4.50;99.90;;;;;;5003715;28;20025;-77
2021/11/27 03:25:11;;;;;;;0.43;0.33;;;4.50;99.90;;;;;;5035810;28;20025;-78
2021/11/27 03:27:40;;;;;;;1.30;0.40;;;4.40;99.90;;;;;;5035143;28;20474;-80
2021/11/27 03:30:11;;;;;;;1.53;0.30;;;4.40;99.90;;;;;;5017573;28;20029;-77
2021/11/27 03:32:38;;;;;;;0.60;0.30;;;4.40;99.90;;;;;;5017660;28;20033;-80
2021/11/27 03:35:04;;;;;;;0.67;0.30;;;4.40;99.90;;;;;;5018119;28;20079;-77
2021/11/27 03:37:30;;;;;;;0.50;0.30;;;4.30;99.90;;;;;;5035152;28;20409;-77
2021/11/27 03:39:56;;;;;;;0.70;0.30;;;4.30;99.90;;;;;;5017077;28;20025;-78
2021/11/27 03:42:22;;;;;;;0.53;0.20;;;4.30;99.90;;;;;;5017674;28;20052;-78
2021/11/27 03:44:49;;;;;;;0.67;0.40;;;4.20;99.90;;;;;;5034845;28;20044;-78
2021/11/27 03:47:15;;;;;;;0.50;0.20;;;4.10;99.90;;;;;;5017670;28;20019;-78
2021/11/27 03:49:41;;;;;;;0.50;0.13;;;4.10;99.90;;;;;;5016960;28;20021;-78
2021/11/27 03:52:07;;;;;;;0.43;0.43;;;4.20;99.90;;;;;;5035049;28;20040;-78
2021/11/27 03:54:33;;;;;;;0.30;0.10;;;4.10;99.90;;;;;;5017757;28;20029;-78
2021/11/27 03:56:59;;;;;;;1.20;0.20;;;4.10;99.90;;;;;;5034675;28;20033;-78
2021/11/27 03:59:26;;;;;;;0.27;0.13;;;4.10;99.90;;;;;;5017566;28;20108;-78
2021/11/27 04:01:53;;;;;;;0.30;0.20;;;4.20;99.90;;;;;;5016913;28;20030;-78
2021/11/27 04:04:19;;;;;;;0.30;0.10;;;4.20;99.90;;;;;;5016850;28;20025;-78
2021/11/27 04:06:46;;;;;;;0.60;0.20;;;4.20;99.90;;;;;;5033403;28;20025;-78
2021/11/27 04:09:12;;;;;;;4.00;0.27;;;4.20;99.90;;;;;;5033719;28;20080;-78
2021/11/27 04:11:39;;;;;;;0.67;0.20;;;4.20;99.90;;;;;;5034477;28;20026;-78
2021/11/27 04:14:05;;;;;;;0.30;0.20;;;4.20;99.90;;;;;;5017124;28;20029;-78
2021/11/27 04:16:32;;;;;;;0.77;0.23;;;4.20;99.90;;;;;;5016980;28;20409;-78
2021/11/27 04:18:58;;;;;;;1.80;0.20;;;4.20;99.90;;;;;;5033800;28;20053;-78
2021/11/27 04:21:23;;;;;;;0.10;0.10;;;4.20;99.90;;;;;;5017040;28;20462;-78
2021/11/27 04:23:50;;;;;;;0.20;0.20;;;4.20;99.90;;;;;;5016160;28;20079;-78
2021/11/27 04:26:17;;;;;;;0.50;0.30;;;4.20;99.90;;;;;;5017057;28;20021;-76
2021/11/27 04:28:43;;;;;;;0.90;0.30;;;4.30;99.90;;;;;;5015833;28;20045;-77
2021/11/27 04:31:09;;;;;;;0.63;0.30;;;4.20;99.90;;;;;;5016123;28;20112;-77
2021/11/27 04:33:35;;;;;;;0.33;0.30;;;4.20;99.90;;;;;;5016617;28;20413;-77
2021/11/27 04:36:01;;;;;;;0.30;0.17;;;4.30;99.90;;;;;;5033482;28;20152;-77
2021/11/27 04:38:26;;;;;;;0.43;0.10;;;4.30;99.90;;;;;;5016266;28;20017;-77
2021/11/27 04:40:53;;;;;;;1.43;0.20;;;4.40;99.90;;;;;;5015979;28;20079;-77
2021/11/27 04:43:19;;;;;;;0.60;0.20;;;4.30;99.90;;;;;;5016022;28;20108;-77
2021/11/27 04:45:46;;;;;;;0.50;0.30;;;4.30;99.90;;;;;;5033481;28;20044;-77
2021/11/27 04:48:12;;;;;;;0.50;0.30;;;4.40;99.90;;;;;;5016410;28;20025;-77
2021/11/27 04:50:39;;;;;;;0.30;0.20;;;4.40;99.90;;;;;;5016013;28;20021;-77
2021/11/27 04:53:05;;;;;;;0.37;0.30;;;4.40;99.90;;;;;;5033245;28;20048;-77
2021/11/27 04:55:32;;;;;;;0.60;0.20;;;4.40;99.90;;;;;;5015596;28;20021;-77
2021/11/27 04:57:59;;;;;;;0.30;0.20;;;4.50;99.90;;;;;;5015661;28;20018;-77
2021/11/27 05:00:28;;;;;;;0.20;0.13;;;4.50;99.90;;;;;;5015927;28;20060;-77
2021/11/27 05:02:54;;;;;;;0.30;0.20;;;4.50;99.90;;;;;;5015491;28;20364;-77
2021/11/27 05:05:22;;;;;;;0.50;0.30;;;4.50;99.90;;;;;;5033877;28;20415;-77
2021/11/27 05:07:47;;;;;;;0.53;0.20;;;4.50;99.90;;;;;;5015342;28;20029;-77
2021/11/27 05:10:13;;;;;;;0.30;0.10;;;4.50;99.90;;;;;;5015911;28;20515;-77
2021/11/27 05:12:40;;;;;;;0.30;0.20;;;4.50;99.90;;;;;;5015850;28;20025;-77
2021/11/27 05:15:06;;;;;;;0.90;0.20;;;4.50;99.90;;;;;;5015437;28;20025;-77
2021/11/27 05:17:32;;;;;;;0.10;0.00;;;4.50;99.90;;;;;;5016022;28;20480;-77
2021/11/27 05:19:58;;;;;;;0.53;0.20;;;4.60;99.90;;;;;;5015272;28;20044;-77
2021/11/27 05:22:24;;;;;;;0.40;0.20;;;4.60;99.90;;;;;;5015861;28;20022;-76
2021/11/27 05:24:51;;;;;;;1.60;0.30;;;4.60;99.90;;;;;;5015173;28;20028;-78
2021/11/27 05:27:19;;;;;;;0.50;0.20;;;4.60;99.90;;;;;;5033311;28;20072;-77
2021/11/27 05:29:45;;;;;;;0.63;0.20;;;4.60;99.90;;;;;;5015112;28;20026;-78
2021/11/27 05:32:22;;;;;;;0.27;0.20;;;4.60;99.90;;;;;;5015602;28;20041;-77
2021/11/27 05:34:48;;;;;;;0.30;0.20;;;4.60;99.90;;;;;;5032592;28;20014;-77
2021/11/27 05:37:14;;;;;;;1.30;0.20;;;4.60;99.90;;;;;;5016038;28;20092;-77
2021/11/27 05:39:42;;;;;;;0.50;0.20;;;4.60;99.90;;;;;;5033105;28;20452;-77
2021/11/27 05:42:09;;;;;;;0.20;0.10;;;4.60;99.90;;;;;;5015647;28;20359;-77
2021/11/27 05:44:34;;;;;;;0.50;0.20;;;4.60;99.90;;;;;;5019188;28;20041;-77
2021/11/27 05:47:00;;;;;;;0.40;0.20;;;4.60;99.90;;;;;;5019214;28;20024;-77
2021/11/27 05:49:25;;;;;;;0.40;0.20;;;4.70;99.90;;;;;;5019486;28;20022;-77
2021/11/27 05:51:51;;;;;;;0.40;0.20;;;4.70;99.90;;;;;;5018921;28;20029;-77
2021/11/27 05:54:17;;;;;;;0.30;0.20;;;4.60;99.90;;;;;;5037045;28;20366;-77
2021/11/27 05:56:43;;;;;;;0.97;0.20;;;4.60;99.90;;;;;;5019524;28;20160;-77
2021/11/27 05:59:08;;;;;;;0.23;0.17;;;4.60;99.90;;;;;;5019174;28;20040;-76
2021/11/27 06:01:34;;;;;;;0.20;0.20;;;4.60;99.90;;;;;;5019291;28;20025;-79
2021/11/27 06:04:00;;;;;;;1.50;0.20;;;4.60;99.90;;;;;;5018722;28;20018;-79
2021/11/27 06:06:25;;;;;;;0.20;0.20;;;4.60;99.90;;;;;;5019349;28;20056;-79
2021/11/27 06:08:51;;;;;;;0.40;0.10;;;4.60;99.90;;;;;;5036294;28;20029;-79
2021/11/27 06:11:16;;;;;;;2.00;0.40;;;4.50;99.90;;;;;;5019072;28;20021;-79
2021/11/27 06:13:42;;;;;;;0.40;0.13;;;4.50;99.90;;;;;;5019096;28;20029;-79
2021/11/27 06:16:08;;;;;;;0.20;0.20;;;4.50;99.90;;;;;;5018775;28;20018;-79
2021/11/27 06:18:35;;;;;;;1.43;0.30;;;4.50;99.90;;;;;;5019138;28;20028;-78
2021/11/27 06:21:02;;;;;;;1.17;0.20;;;4.50;99.90;;;;;;5018297;28;20521;-79
2021/11/27 06:23:28;;;;;;;0.20;0.20;;;4.50;99.90;;;;;;5036583;28;20060;-79
2021/11/27 06:25:57;;;;;;;0.30;0.20;;;4.50;99.90;;;;;;5018508;28;20355;-76
2021/11/27 06:28:23;;;;;;;0.87;0.23;;;4.50;99.90;;;;;;5018961;28;20079;-78
2021/11/27 06:30:49;;;;;;;2.43;0.33;;;4.50;99.90;;;;;;5018097;28;20032;-79
2021/11/27 06:33:15;;;;;;;0.73;0.20;;;4.50;99.90;;;;;;5018626;28;20414;-79
2021/11/27 06:35:42;;;;;;;0.50;0.20;;;4.50;99.90;;;;;;5018891;28;20032;-79
2021/11/27 06:38:08;;;;;;;0.30;0.20;;;4.50;99.90;;;;;;5018515;28;20036;-79
2021/11/27 06:40:35;;;;;;;0.63;0.30;;;4.60;99.90;;;;;;5036437;28;20021;-78
2021/11/27 06:43:01;;;;;;;3.03;0.30;;;4.60;99.90;;;;;;5018233;28;20477;-79
2021/11/27 06:45:28;;;;;;;1.50;0.20;;;4.60;99.90;;;;;;5018738;28;20088;-79
2021/11/27 06:47:55;;;;;;;0.23;0.13;;;4.70;99.90;;;;;;5018421;28;20112;-79
2021/11/27 06:50:21;;;;;;;0.33;0.20;;;4.60;99.90;;;;;;5018433;28;20033;-81
2021/11/27 06:52:46;;;;;;;0.87;0.30;;;4.70;99.90;;;;;;5000317;28;20033;-80
2021/11/27 06:55:12;;;;;;;0.70;0.20;;;4.70;99.90;;;;;;5012890;28;20500;-79
2021/11/27 06:57:38;;;;;;;0.90;0.30;;;4.70;99.90;;;;;;5012285;28;20599;-79
2021/11/27 07:00:05;;;;;;;0.67;0.20;;;4.60;99.90;;;;;;4999922;28;20017;-79
2021/11/27 07:02:30;;;;;;;0.27;0.20;;;4.70;99.90;;;;;;5008290;28;20038;-78
2021/11/27 07:04:57;;;;;;;0.50;0.30;;;4.70;99.90;;;;;;5005481;28;20053;-78
2021/11/27 07:07:23;;;;;;;0.70;0.33;;;4.70;99.90;;;;;;5001073;28;20080;-78
2021/11/27 07:09:49;;;;;;;1.97;0.40;;;4.60;99.90;;;;;;5012498;28;20083;-80
2021/11/27 07:12:14;;;;;;;0.57;0.30;;;4.60;99.90;;;;;;5010212;28;20084;-78
2021/11/27 07:14:40;;;;;;;0.63;0.40;;;4.70;99.90;;;;;;5003665;28;20124;-79
2021/11/27 07:17:06;;;;;;;0.40;0.20;;;4.70;99.90;;;;;;5014405;28;20033;-79
2021/11/27 07:19:32;;;;;;;0.97;0.27;;;4.60;99.90;;;;;;4998224;28;20378;-79
2021/11/27 07:22:02;;;;;;;1.30;0.37;;;4.60;99.90;;;;;;5013973;28;20025;-79
2021/11/27 07:24:29;;;;;;;2.93;0.40;;;4.70;99.90;;;;;;5006736;28;20048;-79
2021/11/27 07:26:54;;;;;;;0.67;0.23;;;4.70;99.90;;;;;;5024515;28;20467;-79
2021/11/27 07:29:20;;;;;;;0.40;0.23;;;4.70;99.90;;;;;;5014362;28;20052;-79
2021/11/27 07:31:47;;;;;;;1.03;0.40;;;4.70;99.90;;;;;;4998343;28;20457;-79
2021/11/27 07:34:13;;;;;;;1.33;0.33;;;4.70;99.90;;;;;;5025610;28;20030;-78
2021/11/27 07:36:38;;;;;;;2.20;0.30;;;4.70;99.90;;;;;;5004714;28;20446;-78
2021/11/27 07:39:08;;;;;;;1.30;0.70;;;4.80;99.90;;;;;;4999885;28;20029;-78
2021/11/27 07:41:34;;;;;;;0.87;0.30;;;4.80;99.90;;;;;;5029674;28;20468;-78
2021/11/27 07:44:00;;;;;;;0.80;0.37;;;4.80;99.90;;;;;;5025990;28;20042;-78
2021/11/27 07:46:25;;;;;;;1.03;0.50;;;4.80;99.90;;;;;;5002962;28;20041;-78
2021/11/27 07:48:52;;;;;;;1.43;0.47;;;4.90;99.90;;;;;;5019685;28;20018;-79
2021/11/27 07:51:17;;;;;;;0.53;0.30;;;4.90;99.90;;;;;;5009040;28;20061;-78
2021/11/27 07:53:44;;;;;;;0.70;0.30;;;4.90;99.90;;;;;;5010814;28;20061;-78
2021/11/27 07:56:10;;;;;;;1.90;0.30;;;4.90;99.90;;;;;;5000398;28;20025;-79
2021/11/27 07:58:36;;;;;;;0.93;0.80;;;4.90;99.90;;;;;;5014212;28;20361;-78
2021/11/27 08:01:02;;;;;;;0.63;0.33;;;4.90;99.90;;;;;;5000431;28;20144;-79
2021/11/27 08:03:28;;;;;;;1.43;0.50;;;5.00;99.90;;;;;;5029027;28;20029;-80
2021/11/27 08:05:53;;;;;;;1.27;0.30;;;4.90;99.90;;;;;;5009198;28;20026;-79
2021/11/27 08:08:19;;;;;;;1.57;0.50;;;5.00;99.90;;;;;;5019489;28;20492;-79
2021/11/27 08:10:45;;;;;;;0.30;0.30;;;5.00;99.90;;;;;;5031199;28;20075;-80
2021/11/27 08:13:10;;;;;;;2.17;0.40;;;5.00;99.90;;;;;;4998826;28;20498;-79
2021/11/27 08:15:36;;;;;;;1.07;0.33;;;5.00;99.90;;;;;;5011406;28;20032;-79
2021/11/27 08:18:02;;;;;;;0.50;0.20;;;5.00;99.90;;;;;;5025233;28;20026;-78
2021/11/27 08:20:28;;;;;;;0.30;0.20;;;5.00;99.90;;;;;;5019886;28;20033;-77
2021/11/27 08:22:53;;;;;;;1.27;0.30;;;5.10;99.90;;;;;;5018219;28;20099;-77
2021/11/27 08:25:20;;;;;;;0.60;0.37;;;5.00;99.90;;;;;;4993688;28;20117;-78
2021/11/27 08:27:46;;;;;;;0.90;0.50;;;5.10;99.90;;;;;;5009219;28;20037;-78
2021/11/27 08:30:12;;;;;;;0.30;0.30;;;5.00;99.90;;;;;;4993419;28;20029;-77
2021/11/27 08:32:39;;;;;;;0.57;0.40;;;5.10;99.90;;;;;;4993286;28;20038;-77
2021/11/27 08:35:06;;;;;;;0.60;0.47;;;5.10;99.90;;;;;;5005740;28;20025;-78
2021/11/27 08:37:32;;;;;;;0.90;0.43;;;5.10;99.90;;;;;;4996918;28;20069;-78
2021/11/27 08:39:58;;;;;;;1.50;0.50;;;5.10;99.90;;;;;;5029938;28;20462;-78
2021/11/27 08:42:25;;;;;;;0.83;0.60;;;5.20;99.90;;;;;;5005472;28;20026;-78
2021/11/27 08:44:51;;;;;;;0.60;0.40;;;5.10;99.90;;;;;;4992784;28;20135;-78
2021/11/27 08:47:18;;;;;;;0.47;0.37;;;5.10;99.90;;;;;;5025482;28;20425;-78
2021/11/27 08:49:44;;;;;;;1.60;0.80;;;5.10;99.90;;;;;;5009766;28;20034;-78
2021/11/27 08:52:10;;;;;;;1.20;0.53;;;5.10;99.90;;;;;;5006428;28;20120;-78
2021/11/27 08:54:36;;;;;;;1.23;0.70;;;5.10;99.90;;;;;;5002790;28;20040;-78
2021/11/27 08:57:02;;;;;;;1.23;0.60;;;5.20;99.90;;;;;;5005427;28;20026;-77
2021/11/27 08:59:29;;;;;;;0.80;0.40;;;5.10;99.90;;;;;;5012058;28;20026;-79
2021/11/27 09:01:56;;;;;;;1.20;0.60;;;5.10;99.90;;;;;;5003777;28;20034;-79
2021/11/27 09:04:22;;;;;;;1.97;0.60;;;5.10;99.90;;;;;;5001230;28;20032;-79
2021/11/27 09:06:48;;;;;;;0.93;0.40;;;5.10;99.90;;;;;;5030681;28;20029;-78
2021/11/27 09:09:14;;;;;;;3.50;0.77;;;5.00;99.90;;;;;;4997305;28;20307;-78
2021/11/27 09:11:40;;;;;;;0.70;0.40;;;5.00;99.90;;;;;;5009023;28;20033;-79
2021/11/27 09:14:08;;;;;;;1.17;0.50;;;4.90;99.90;;;;;;4998049;28;20037;-78
2021/11/27 09:16:34;;;;;;;1.17;0.50;;;4.90;99.90;;;;;;5002736;28;20033;-79
2021/11/27 09:19:01;;;;;;;1.27;0.30;;;4.90;99.90;;;;;;5005359;28;20025;-78
2021/11/27 09:21:27;;;;;;;0.90;0.37;;;4.80;99.90;;;;;;5003848;28;20034;-79
2021/11/27 09:23:53;;;;;;;0.80;0.50;;;4.80;99.90;;;;;;5012490;28;20025;-79
2021/11/27 09:26:19;;;;;;;0.77;0.40;;;4.80;99.90;;;;;;5005173;28;20036;-78
2021/11/27 09:28:45;;;;;;;0.77;0.40;;;4.80;99.90;;;;;;5003719;28;20108;-79
2021/11/27 09:31:11;;;;;;;2.33;0.63;;;4.80;99.90;;;;;;5011787;28;20171;-79
2021/11/27 09:33:37;;;;;;;0.83;0.40;;;4.80;99.90;;;;;;5014170;28;20030;-79
2021/11/27 09:36:05;;;;;;;0.53;0.30;;;4.90;99.90;;;;;;5024859;28;20025;-80
2021/11/27 09:38:32;;;;;;;1.47;0.50;;;4.90;99.90;;;;;;5019861;28;20087;-80
2021/11/27 09:41:25;;;;;;;1.53;0.50;;;4.90;99.90;;;;;;5012468;28;20041;-79
2021/11/27 09:43:52;;;;;;;1.10;0.47;;;4.90;99.90;;;;;;4996522;28;20478;-79
2021/11/27 09:46:20;;;;;;;1.20;0.60;;;4.90;99.90;;;;;;5022220;28;20053;-78
2021/11/27 09:48:51;;;;;;;0.60;0.40;;;4.90;99.90;;;;;;5004032;28;20067;-78
2021/11/27 09:51:17;;;;;;;0.80;0.50;;;4.90;99.90;;;;;;5006877;28;20474;-79
2021/11/27 09:53:45;;;;;;;1.20;0.60;;;4.90;99.90;;;;;;5027289;28;20026;-79
2021/11/27 09:56:11;;;;;;;2.00;0.70;;;4.90;99.90;;;;;;4998557;28;20026;-79
2021/11/27 09:58:37;;;;;;;0.70;0.40;;;4.90;99.90;;;;;;5002865;28;20022;-79
2021/11/27 10:01:06;;;;;;;1.30;0.63;;;5.00;99.90;;;;;;5005207;28;20033;-79
2021/11/27 10:03:33;;;;;;;1.23;0.50;;;5.00;99.90;;;;;;4995956;28;20057;-79
2021/11/27 10:06:00;;;;;;;0.60;0.50;;;5.00;99.90;;;;;;5007540;28;20415;-78
2021/11/27 10:08:26;;;;;;;2.20;0.80;;;5.00;99.90;;;;;;4992724;28;20033;-79
2021/11/27 10:10:52;;;;;;;1.63;0.60;;;5.00;99.90;;;;;;5004758;28;20032;-79
2021/11/27 10:13:19;;;;;;;1.07;0.73;;;5.00;99.90;;;;;;5013932;28;20030;-79
2021/11/27 10:15:45;;;;;;;2.00;0.70;;;5.00;99.90;;;;;;5000450;28;20109;-79
2021/11/27 10:18:32;;;;;;;0.93;0.70;;;5.00;99.90;;;;;;5020891;28;20025;-79
2021/11/27 10:21:23;;;;;;;2.77;0.80;;;5.00;99.90;;;;;;5027158;28;20053;-79
2021/11/27 10:23:50;;;;;;;1.97;0.80;;;5.10;99.90;;;;;;5011754;28;20401;-79
2021/11/27 10:26:37;;;;;;;1.70;1.00;;;5.10;99.90;;;;;;5003289;28;20057;-79
2021/11/27 10:29:29;;;;;;;1.90;0.90;;;5.10;99.90;;;;;;5026412;28;20025;-80
2021/11/27 10:32:10;;;;;;;2.53;1.10;;;5.10;99.90;;;;;;5012886;28;20389;-79
2021/11/27 10:34:37;;;;;;;3.15;0.95;;;5.10;99.90;;;;;;5009883;28;20187;-78
2021/11/27 10:37:22;;;;;;;1.47;0.97;;;5.00;99.90;;;;;;5009932;28;20074;-79
2021/11/27 10:40:25;;;;;;;2.60;0.77;;;5.00;99.90;;;;;;5013630;28;20405;-78
2021/11/27 10:43:00;;;;;;;1.40;0.60;;;5.00;99.90;;;;;;4911025;29;20108;-78
2021/11/27 10:45:31;;;;;;;1.87;0.87;;;5.00;99.90;;;;;;4997324;28;20045;-78
2021/11/27 10:48:19;;;;;;;8.55;2.70;;;5.00;99.90;;;;;;5029444;28;20337;-79
2021/11/27 10:50:58;;;;;;;19.37;5.33;;;5.00;99.90;;;;;;5011038;28;20108;-79
2021/11/27 10:53:27;;;;;;;7.47;3.20;;;5.10;99.90;;;;;;5027325;28;20021;-79
2021/11/27 10:56:02;;;;;;;9.77;2.77;;;5.00;99.90;;;;;;5008041;28;20029;-79
2021/11/27 10:58:27;;;;;;;4.57;1.90;;;5.10;99.90;;;;;;5012086;28;20061;-78
2021/11/27 11:00:54;;;;;;;4.60;1.90;;;5.00;99.90;;;;;;5029753;28;20060;-78
2021/11/27 11:03:28;;;;;;;5.20;2.00;;;5.00;99.90;;;;;;5008934;28;20071;-79
2021/11/27 11:05:56;;;;;;;4.67;1.50;;;5.10;99.90;;;;;;5029150;28;20022;-78
2021/11/27 11:08:32;;;;;;;4.30;1.53;;;5.00;99.90;;;;;;5008479;28;20469;-78
2021/11/27 11:10:58;;;;;;;3.50;1.00;;;5.10;99.90;;;;;;5028390;28;20029;-80
2021/11/27 11:13:31;;;;;;;4.27;1.60;;;5.10;99.90;;;;;;5013746;28;20029;-78
2021/11/27 11:15:57;;;;;;;2.67;1.27;;;5.00;99.90;;;;;;5018324;28;20040;-78
2021/11/27 11:18:27;;;;;;;4.40;1.50;;;5.00;99.90;;;;;;5007191;28;20405;-82
2021/11/27 11:20:59;;;;;;;5.47;1.50;;;5.00;99.90;;;;;;5018342;28;20493;-82
2021/11/27 11:23:35;;;;;;;2.00;1.17;;;5.10;99.90;;;;;;5017260;28;20026;-80
2021/11/27 11:26:18;;;;;;;1.17;0.93;;;5.10;99.90;;;;;;5012708;28;20022;-82
2021/11/27 11:28:44;;;;;;;1.77;1.10;;;5.20;99.90;;;;;;5028384;28;20481;-82
2021/11/27 11:31:13;;;;;;;1.23;0.67;;;5.20;99.90;;;;;;5008768;28;20034;-79
2021/11/27 11:33:45;;;;;;;3.17;1.40;;;5.20;99.90;;;;;;5029035;28;20428;-78
2021/11/27 11:36:14;;;;;;;1.33;0.73;;;5.30;99.90;;;;;;5017056;28;20032;-78
2021/11/27 11:38:43;;;;;;;2.17;0.90;;;5.30;99.90;;;;;;5018402;28;20056;-79
2021/11/27 11:41:11;;;;;;;1.73;0.73;;;5.30;99.90;;;;;;5010959;28;20054;-80
2021/11/27 11:43:37;;;;;;;2.23;0.57;;;5.20;99.90;;;;;;5026854;28;20490;-80
2021/11/27 11:46:03;;;;;;;2.80;0.80;;;5.20;99.90;;;;;;5004265;28;20033;-81
2021/11/27 11:48:30;;;;;;;2.90;0.80;;;5.20;99.90;;;;;;5012534;28;20026;-80
2021/11/27 11:51:07;;;;;;;3.30;1.10;;;5.30;99.90;;;;;;5010942;28;20079;-81
2021/11/27 11:53:34;;;;;;;2.00;0.93;;;5.30;99.90;;;;;;5011251;28;20041;-80
2021/11/27 11:56:03;;;;;;;2.83;0.87;;;5.30;99.90;;;;;;5013412;28;20028;-81
2021/11/27 11:58:37;;;;;;;2.20;0.70;;;5.20;99.90;;;;;;5013697;28;20543;-80
2021/11/27 12:01:21;;;;;;;1.47;0.80;;;5.30;99.90;;;;;;5013734;28;20470;-82
2021/11/27 12:03:50;;;;;;;2.17;0.87;;;5.30;99.90;;;;;;5014961;28;20034;-79
2021/11/27 12:06:29;;;;;;;2.47;1.33;;;5.40;99.90;;;;;;5003337;28;20026;-79
2021/11/27 12:09:03;;;;;;;1.10;0.90;;;5.30;99.90;;;;;;4997361;28;20120;-81
2021/11/27 12:11:43;;;;;;;1.67;1.00;;;5.30;99.90;;;;;;5004402;28;20470;-81
2021/11/27 12:14:20;;;;;;;2.20;1.13;;;5.20;99.90;;;;;;5009994;28;20029;-80
2021/11/27 12:17:14;;;;;;;1.20;1.10;;;5.10;99.90;;;;;;5014450;28;20056;-79
2021/11/27 12:19:50;;;;;;;2.33;1.20;;;5.10;99.90;;;;;;5030134;28;20029;-81
2021/11/27 12:22:27;;;;;;;1.60;1.10;;;5.10;99.90;;;;;;5015336;28;20038;-78
2021/11/27 12:25:20;;;;;;;3.27;1.70;;;5.10;99.90;;;;;;5014603;28;20033;-79
2021/11/27 12:28:02;;;;;;;2.10;1.30;;;5.10;99.90;;;;;;5012775;28;20050;-79
2021/11/27 12:30:54;;;;;;;2.30;1.40;;;5.10;99.90;;;;;;5011359;28;20033;-77
2021/11/27 12:33:39;;;;;;;;;;;5.10;99.90;;;;;;4984476;28;20552;-77
2021/11/27 12:36:04;;;;;;;2.50;1.23;;;5.10;99.90;;;;;;5030412;28;20042;-77
2021/11/27 12:38:34;;;;;;;2.23;1.43;;;5.10;99.90;;;;;;5017326;28;20050;-78
2021/11/27 12:41:00;;;;;;;2.17;1.20;;;5.10;99.90;;;;;;5017452;28;20032;-80
2021/11/27 12:43:26;;;;;;;2.40;1.40;;;5.00;99.90;;;;;;5001796;28;20057;-79
2021/11/27 12:45:59;;;;;;;2.47;1.40;;;5.00;99.90;;;;;;5008577;28;20034;-80
2021/11/27 12:48:31;;;;;;;3.37;1.50;;;5.00;99.90;;;;;;5003817;28;20029;-79
2021/11/27 12:51:18;;;;;;;9.75;2.20;;;5.00;99.90;;;;;;5003886;28;20108;-80
2021/11/27 12:53:59;;;;;;;4.03;1.90;;;4.90;99.90;;;;;;5025269;28;20057;-79
2021/11/27 12:56:30;;;;;;;4.03;2.10;;;4.90;99.90;;;;;;4998289;28;20026;-79
2021/11/27 12:58:59;;;;;;;3.30;1.67;;;4.90;99.90;;;;;;5008566;28;20024;-79
2021/11/27 13:01:33;;;;;;;3.20;1.60;;;4.90;99.90;;;;;;5004131;28;20087;-79
2021/11/27 13:04:01;;;;;;;3.23;2.07;;;4.90;99.90;;;;;;4998317;28;20485;-78